createdAt,value
2019-05-29T00:01:25.836Z,101597.34
2019-05-29T00:03:55.177Z,101602.81
2019-05-29T00:06:24.436Z,101606.52
2019-05-29T00:08:53.741Z,101604.25
2019-05-29T00:11:23.035Z,101615.58
2019-05-29T00:13:52.339Z,101616.09
2019-05-29T00:16:21.692Z,101617.03
2019-05-29T00:18:50.952Z,101619.77
2019-05-29T00:21:20.232Z,101622.91
2019-05-29T00:23:49.521Z,101627.15
2019-05-29T00:26:18.826Z,101631.27
2019-05-29T00:28:48.161Z,101629.52
2019-05-29T00:31:18.186Z,101641.58
2019-05-29T00:33:47.535Z,101633.26
2019-05-29T00:36:16.849Z,101643.87
2019-05-29T00:38:46.142Z,101648.47
2019-05-29T00:41:15.469Z,101650.34
2019-05-29T00:43:44.765Z,101649.88
2019-05-29T00:46:14.147Z,101651.50
2019-05-29T00:48:43.533Z,101653.99
2019-05-29T00:51:13.046Z,101648.65
2019-05-29T00:53:42.417Z,101650.15
2019-05-29T00:56:12.650Z,101654.07
2019-05-29T00:58:42.012Z,101659.72
2019-05-29T01:01:11.472Z,101663.87
2019-05-29T01:03:40.788Z,101667.91
2019-05-29T01:06:10.104Z,101673.91
2019-05-29T01:08:39.406Z,101677.99
2019-05-29T01:11:08.683Z,101675.81
2019-05-29T01:13:37.982Z,101673.98
2019-05-29T01:16:07.286Z,101676.27
2019-05-29T01:18:36.556Z,101678.22
2019-05-29T01:21:05.871Z,101683.66
2019-05-29T01:23:35.128Z,101678.79
2019-05-29T01:26:04.463Z,101681.31
2019-05-29T01:28:33.748Z,101683.66
2019-05-29T01:31:03.128Z,101699.36
2019-05-29T01:33:32.456Z,101701.97
2019-05-29T01:36:01.773Z,101700.25
2019-05-29T01:38:31.068Z,101700.17
2019-05-29T01:41:00.341Z,101701.53
2019-05-29T01:43:29.570Z,101699.31
2019-05-29T01:45:58.890Z,101708.34
2019-05-29T01:48:28.192Z,101710.16
2019-05-29T01:50:57.504Z,101712.23
2019-05-29T01:53:27.899Z,101716.66
2019-05-29T01:55:57.463Z,101714.01
2019-05-29T01:58:27.962Z,101714.87
2019-05-29T02:00:57.302Z,101722.78
2019-05-29T02:03:26.627Z,101720.73
2019-05-29T02:05:55.967Z,101726.21
2019-05-29T02:08:25.266Z,101722.55
2019-05-29T02:10:56.926Z,101729.22
2019-05-29T02:13:26.276Z,101724.19
2019-05-29T02:15:55.621Z,101736.10
2019-05-29T02:18:25.145Z,101737.50
2019-05-29T02:20:54.533Z,101740.49
2019-05-29T02:23:24.220Z,101745.99
2019-05-29T02:25:53.576Z,101751.50
2019-05-29T02:28:23.127Z,101747.30
2019-05-29T02:30:52.421Z,101747.95
2019-05-29T02:33:22.044Z,101756.81
2019-05-29T02:35:51.868Z,101750.77
2019-05-29T02:38:22.886Z,101752.56
2019-05-29T02:40:52.172Z,101747.59
2019-05-29T02:43:23.395Z,101749.45
2019-05-29T02:45:54.828Z,101746.33
2019-05-29T02:48:25.017Z,101748.95
2019-05-29T02:50:54.742Z,101747.30
2019-05-29T02:53:24.456Z,101752.50
2019-05-29T02:55:53.827Z,101756.88
2019-05-29T02:58:24.018Z,101756.50
2019-05-29T03:00:55.812Z,101757.89
2019-05-29T03:03:27.333Z,101754.31
2019-05-29T03:05:57.630Z,101757.03
2019-05-29T03:08:30.055Z,101761.78
2019-05-29T03:10:58.968Z,101769.77
2019-05-29T03:13:30.543Z,101771.98
2019-05-29T03:16:10.482Z,101769.34
2019-05-29T03:18:34.720Z,101776.27
2019-05-29T03:21:02.704Z,101775.91
2019-05-29T03:23:33.922Z,101776.77
2019-05-29T03:26:03.076Z,101777.22
2019-05-29T03:28:35.269Z,101791.34
2019-05-29T03:31:04.670Z,101796.67
2019-05-29T03:33:40.891Z,101791.34
2019-05-29T03:36:05.178Z,101792.20
2019-05-29T03:38:38.495Z,101794.48
2019-05-29T03:41:08.084Z,101798.88
2019-05-29T03:43:38.797Z,101800.22
2019-05-29T03:46:26.415Z,101806.38
2019-05-29T03:48:43.829Z,101799.34
2019-05-29T03:51:13.176Z,101811.20
2019-05-29T03:53:42.532Z,101812.12
2019-05-29T03:56:11.865Z,101814.30
2019-05-29T03:58:41.253Z,101808.15
2019-05-29T04:01:12.721Z,101814.27
2019-05-29T04:03:42.056Z,101815.16
2019-05-29T04:06:11.409Z,101822.23
2019-05-29T04:08:40.712Z,101828.83
2019-05-29T04:11:20.700Z,101833.63
2019-05-29T04:13:42.998Z,101828.80
2019-05-29T04:16:13.225Z,101837.20
2019-05-29T04:18:42.916Z,101841.53
2019-05-29T04:21:29.639Z,101841.97
2019-05-29T04:23:59.862Z,101851.16
2019-05-29T04:26:41.516Z,101845.03
2019-05-29T04:29:14.947Z,101848.98
2019-05-29T04:31:44.419Z,101858.20
2019-05-29T04:34:13.855Z,101859.55
2019-05-29T04:36:43.301Z,101863.39
2019-05-29T04:39:12.673Z,101860.25
2019-05-29T04:41:42.090Z,101865.62
2019-05-29T04:44:12.779Z,101864.42
2019-05-29T04:46:42.305Z,101869.55
2019-05-29T04:49:11.697Z,101877.34
2019-05-29T04:51:51.367Z,101881.07
2019-05-29T04:54:12.245Z,101875.16
2019-05-29T04:56:44.268Z,101887.89
2019-05-29T04:59:17.913Z,101894.87
2019-05-29T05:01:46.111Z,101903.16
2019-05-29T05:04:17.939Z,101910.14
2019-05-29T05:06:47.266Z,101909.56
2019-05-29T05:09:17.205Z,101917.59
2019-05-29T05:11:46.758Z,101924.06
2019-05-29T05:14:16.127Z,101931.69
2019-05-29T05:16:45.814Z,101926.98
2019-05-29T05:19:17.026Z,101914.93
2019-05-29T05:21:46.277Z,101923.17
2019-05-29T05:24:15.600Z,101927.98
2019-05-29T05:26:44.955Z,101921.59
2019-05-29T05:29:14.331Z,101932.19
2019-05-29T05:31:43.665Z,101925.66
2019-05-29T05:34:12.961Z,101928.21
2019-05-29T05:36:42.243Z,101932.52
2019-05-29T05:39:11.541Z,101929.98
2019-05-29T05:41:41.108Z,101938.48
2019-05-29T05:44:10.566Z,101939.63
2019-05-29T05:46:41.272Z,101931.16
2019-05-29T05:49:10.827Z,101935.12
2019-05-29T05:51:44.174Z,101943.70
2019-05-29T05:54:11.235Z,101945.48
2019-05-29T05:56:41.706Z,101954.14
2019-05-29T05:59:11.146Z,101954.80
2019-05-29T06:01:40.469Z,101955.08
2019-05-29T06:04:09.850Z,101958.30
2019-05-29T06:06:40.271Z,101956.14
2019-05-29T06:09:09.622Z,101955.77
2019-05-29T06:11:38.956Z,101956.28
2019-05-29T06:14:08.241Z,101963.82
2019-05-29T06:16:38.638Z,101961.02
2019-05-29T06:19:08.055Z,101960.97
2019-05-29T06:21:37.375Z,101952.34
2019-05-29T06:24:06.690Z,101953.91
2019-05-29T06:26:36.791Z,101958.72
2019-05-29T06:29:06.339Z,101962.27
2019-05-29T06:31:35.638Z,101963.27
2019-05-29T06:34:04.985Z,101966.79
2019-05-29T06:36:35.233Z,101963.64
2019-05-29T06:39:06.586Z,101967.03
2019-05-29T06:41:35.862Z,101966.67
2019-05-29T06:44:05.199Z,101964.20
2019-05-29T06:46:35.740Z,101967.71
2019-05-29T06:49:05.407Z,101971.22
2019-05-29T06:51:35.166Z,101968.89
2019-05-29T06:54:04.533Z,101972.20
2019-05-29T06:56:33.815Z,101983.18
2019-05-29T06:59:03.107Z,101987.37
2019-05-29T07:01:32.386Z,101992.56
2019-05-29T07:04:11.727Z,101991.31
2019-05-29T07:06:32.760Z,101998.66
2019-05-29T07:09:02.067Z,101994.54
2019-05-29T07:11:31.349Z,101992.16
2019-05-29T07:14:00.652Z,102004.52
2019-05-29T07:16:43.796Z,102001.81
2019-05-29T07:21:32.057Z,102003.89
2019-05-29T07:24:01.313Z,102011.89
2019-05-29T07:26:30.637Z,102017.91
2019-05-29T07:29:08.081Z,102022.46
2019-05-29T07:31:30.990Z,102026.72
2019-05-29T07:34:00.452Z,102026.53
2019-05-29T07:36:29.760Z,102019.70
2019-05-29T07:39:03.575Z,102034.41
2019-05-29T07:41:30.044Z,102034.48
2019-05-29T07:43:59.330Z,102032.75
2019-05-29T07:46:30.672Z,102029.70
2019-05-29T07:48:59.660Z,102034.14
2019-05-29T07:51:28.993Z,102042.16
2019-05-29T07:53:58.272Z,102038.62
2019-05-29T07:56:27.582Z,102029.23
2019-05-29T07:59:02.928Z,102033.61
2019-05-29T08:01:30.475Z,102025.42
2019-05-29T08:03:59.002Z,102034.28
2019-05-29T08:06:28.368Z,102030.17
2019-05-29T08:08:57.607Z,102028.09
2019-05-29T08:11:26.947Z,102033.44
2019-05-29T08:13:56.329Z,102038.15
2019-05-29T08:16:25.632Z,102032.15
2019-05-29T08:18:57.015Z,102034.05
2019-05-29T08:21:27.181Z,102039.98
2019-05-29T08:23:56.409Z,102037.06
2019-05-29T08:26:25.725Z,102028.81
2019-05-29T08:28:55.049Z,102031.33
2019-05-29T08:31:24.341Z,102036.50
2019-05-29T08:33:53.814Z,102031.92
2019-05-29T08:36:23.373Z,102041.69
2019-05-29T08:38:52.719Z,102040.43
2019-05-29T08:41:22.152Z,102041.05
2019-05-29T08:43:52.766Z,102033.77
2019-05-29T08:46:22.296Z,102037.09
2019-05-29T08:48:53.620Z,102032.38
2019-05-29T08:51:22.803Z,102036.05
2019-05-29T08:53:54.568Z,102039.99
2019-05-29T08:56:23.340Z,102037.23
2019-05-29T08:58:52.682Z,102042.38
2019-05-29T09:01:21.971Z,102039.16
2019-05-29T09:03:51.481Z,102038.23
2019-05-29T09:06:22.195Z,102025.08
2019-05-29T09:08:54.055Z,102041.31
2019-05-29T09:11:22.641Z,102034.03
2019-05-29T09:13:51.970Z,102035.77
2019-05-29T09:16:21.995Z,102038.11
2019-05-29T09:18:51.517Z,102038.89
2019-05-29T09:21:24.639Z,102042.55
2019-05-29T09:23:53.561Z,102042.39
2019-05-29T09:26:25.749Z,102040.39
2019-05-29T09:28:53.930Z,102041.33
2019-05-29T09:31:23.905Z,102042.97
2019-05-29T09:33:54.579Z,102035.69
2019-05-29T09:36:24.679Z,102042.83
2019-05-29T09:38:54.417Z,102037.37
2019-05-29T09:41:25.447Z,102045.02
2019-05-29T09:43:59.534Z,102043.93
2019-05-29T09:46:26.335Z,102035.00
2019-05-29T09:48:55.640Z,102038.86
2019-05-29T09:51:24.950Z,102039.18
2019-05-29T09:53:55.724Z,102038.95
2019-05-29T09:56:25.280Z,102043.41
2019-05-29T09:58:56.335Z,102040.97
2019-05-29T10:01:26.030Z,102041.80
2019-05-29T10:03:57.131Z,102042.83
2019-05-29T10:06:26.427Z,102039.94
2019-05-29T10:08:56.201Z,102041.54
2019-05-29T10:11:26.110Z,102041.75
2019-05-29T10:13:56.762Z,102040.31
2019-05-29T10:16:26.687Z,102036.31
2019-05-29T10:18:57.327Z,102042.24
2019-05-29T10:21:39.089Z,102041.83
2019-05-29T10:23:59.518Z,102034.34
2019-05-29T10:26:29.039Z,102041.61
2019-05-29T10:29:07.634Z,102038.95
2019-05-29T10:31:29.423Z,102042.86
2019-05-29T10:33:58.727Z,102043.05
2019-05-29T10:36:28.282Z,102041.72
2019-05-29T10:38:57.632Z,102040.85
2019-05-29T10:41:26.964Z,102033.59
2019-05-29T10:43:56.265Z,102040.80
2019-05-29T10:46:25.739Z,102044.70
2019-05-29T10:48:56.630Z,102035.56
2019-05-29T10:51:26.319Z,102035.02
2019-05-29T10:53:58.368Z,102033.53
2019-05-29T10:56:26.678Z,102022.66
2019-05-29T10:58:59.503Z,102042.89
2019-05-29T11:01:31.899Z,102034.66
2019-05-29T11:04:01.216Z,102024.71
2019-05-29T11:06:40.841Z,102025.27
2019-05-29T11:09:10.472Z,102018.19
2019-05-29T11:11:39.870Z,102013.79
2019-05-29T11:14:09.302Z,102018.66
2019-05-29T11:16:39.874Z,102017.77
2019-05-29T11:19:09.468Z,102015.61
2019-05-29T11:21:38.828Z,102005.88
2019-05-29T11:24:08.143Z,102008.27
2019-05-29T11:26:37.483Z,102014.56
2019-05-29T11:29:06.871Z,102004.02
2019-05-29T11:31:36.179Z,102013.06
2019-05-29T11:34:05.525Z,102005.23
2019-05-29T11:36:36.788Z,102004.74
2019-05-29T11:39:08.378Z,102005.56
2019-05-29T11:41:37.642Z,102005.38
2019-05-29T11:44:06.947Z,102004.13
2019-05-29T11:46:36.298Z,102008.27
2019-05-29T11:49:05.617Z,101998.31
2019-05-29T11:51:35.008Z,101996.00
2019-05-29T11:54:04.945Z,102000.73
2019-05-29T11:56:34.274Z,102005.60
2019-05-29T11:59:03.604Z,101989.94
2019-05-29T12:01:49.011Z,102002.72
2019-05-29T12:04:22.888Z,101999.27
2019-05-29T12:06:35.188Z,101997.13
2019-05-29T12:09:05.917Z,101987.83
2019-05-29T12:11:35.187Z,101995.87
2019-05-29T12:14:04.542Z,101992.12
2019-05-29T12:16:33.892Z,101990.19
2019-05-29T12:19:03.199Z,101989.80
2019-05-29T12:21:32.489Z,101993.55
2019-05-29T12:24:02.310Z,101991.33
2019-05-29T12:26:36.625Z,101995.02
2019-05-29T12:29:11.402Z,101990.23
2019-05-29T12:31:36.899Z,101984.41
2019-05-29T12:34:17.793Z,101980.55
2019-05-29T12:36:37.303Z,101983.49
2019-05-29T12:39:08.640Z,101981.78
2019-05-29T12:41:37.990Z,101986.30
2019-05-29T12:44:07.310Z,101985.86
2019-05-29T12:46:36.644Z,101987.36
2019-05-29T12:49:06.133Z,101987.80
2019-05-29T12:51:35.901Z,101986.67
2019-05-29T12:54:05.343Z,101978.59
2019-05-29T12:56:34.663Z,101982.23
2019-05-29T12:59:04.697Z,101982.85
2019-05-29T13:01:34.059Z,101980.02
2019-05-29T13:04:04.730Z,101980.57
2019-05-29T13:06:34.190Z,101970.34
2019-05-29T13:09:05.136Z,101974.69
2019-05-29T13:11:34.487Z,101971.66
2019-05-29T13:14:04.685Z,101964.23
2019-05-29T13:16:35.446Z,101971.02
2019-05-29T13:19:05.375Z,101969.95
2019-05-29T13:21:34.807Z,101968.83
2019-05-29T13:24:09.093Z,101962.39
2019-05-29T13:26:35.165Z,101960.50
2019-05-29T13:29:06.205Z,101960.09
2019-05-29T13:31:35.621Z,101955.25
2019-05-29T13:34:04.935Z,101959.88
2019-05-29T13:36:34.295Z,101951.67
2019-05-29T13:39:06.493Z,101949.23
2019-05-29T13:41:35.844Z,101947.46
2019-05-29T13:44:06.797Z,101941.47
2019-05-29T13:46:36.331Z,101939.31
2019-05-29T13:49:07.023Z,101944.22
2019-05-29T13:51:38.189Z,101938.89
2019-05-29T13:54:13.465Z,101932.02
2019-05-29T13:56:50.149Z,101931.45
2019-05-29T13:59:48.915Z,101940.51
2019-05-29T14:02:19.506Z,101932.24
2019-05-29T14:04:48.816Z,101932.34
2019-05-29T14:07:18.153Z,101932.39
2019-05-29T14:09:49.804Z,101930.47
2019-05-29T14:12:19.299Z,101927.31
2019-05-29T14:14:48.529Z,101922.34
2019-05-29T14:17:17.910Z,101926.99
2019-05-29T14:19:47.270Z,101921.80
2019-05-29T14:22:27.370Z,101924.71
2019-05-29T14:25:01.269Z,101914.01
2019-05-29T14:27:30.656Z,101919.83
2019-05-29T14:30:10.023Z,101922.26
2019-05-29T14:33:04.422Z,101921.86
2019-05-29T14:35:13.273Z,101925.31
2019-05-29T14:37:42.521Z,101928.54
2019-05-29T14:40:12.399Z,101924.36
2019-05-29T14:42:41.795Z,101931.88
2019-05-29T14:45:12.531Z,101926.36
2019-05-29T14:47:42.073Z,101921.49
2019-05-29T14:50:13.378Z,101918.31
2019-05-29T14:52:43.033Z,101921.10
2019-05-29T14:55:16.213Z,101929.82
2019-05-29T14:57:43.678Z,101924.81
2019-05-29T15:00:22.870Z,101923.54
2019-05-29T15:02:44.398Z,101923.22
2019-05-29T15:05:15.851Z,101924.98
2019-05-29T15:07:46.205Z,101919.90
2019-05-29T15:10:32.025Z,101906.27
2019-05-29T15:13:06.802Z,101920.22
2019-05-29T15:15:38.476Z,101924.83
2019-05-29T15:18:15.154Z,101919.02
2019-05-29T15:20:44.412Z,101927.09
2019-05-29T15:23:13.578Z,101924.84
2019-05-29T15:25:43.188Z,101925.17
2019-05-29T15:28:14.583Z,101923.94
2019-05-29T15:30:44.746Z,101923.16
2019-05-29T15:33:16.814Z,101920.81
2019-05-29T15:35:47.662Z,101921.11
2019-05-29T15:38:17.232Z,101921.47
2019-05-29T15:40:48.703Z,101921.25
2019-05-29T15:43:19.697Z,101907.28
2019-05-29T15:45:49.552Z,101918.32
2019-05-29T15:48:23.160Z,101906.65
2019-05-29T15:50:58.670Z,101909.62
2019-05-29T15:53:28.143Z,101911.78
2019-05-29T15:56:16.433Z,101907.84
2019-05-29T15:58:39.587Z,101904.47
2019-05-29T16:01:09.642Z,101912.63
2019-05-29T16:03:39.438Z,101911.97
2019-05-29T16:06:11.808Z,101914.27
2019-05-29T16:08:42.033Z,101909.35
2019-05-29T16:11:12.635Z,101905.83
2019-05-29T16:13:43.708Z,101907.73
2019-05-29T16:16:17.249Z,101913.70
2019-05-29T16:19:00.423Z,101905.50
2019-05-29T16:21:18.828Z,101897.73
2019-05-29T16:23:51.561Z,101898.11
2019-05-29T16:26:35.303Z,101892.66
2019-05-29T16:28:56.248Z,101893.77
2019-05-29T16:31:25.907Z,101890.77
2019-05-29T16:33:58.198Z,101884.06
2019-05-29T16:36:29.513Z,101889.84
2019-05-29T16:38:59.182Z,101885.02
2019-05-29T16:41:30.886Z,101890.48
2019-05-29T16:44:01.548Z,101886.08
2019-05-29T16:46:32.586Z,101889.72
2019-05-29T16:49:16.635Z,101883.56
2019-05-29T16:51:47.543Z,101885.27
2019-05-29T16:54:19.456Z,101879.99
2019-05-29T16:56:50.565Z,101886.42
2019-05-29T16:59:21.277Z,101879.38
2019-05-29T17:01:52.310Z,101891.13
2019-05-29T17:04:23.871Z,101882.48
2019-05-29T17:06:53.498Z,101882.02
2019-05-29T17:09:23.262Z,101888.83
2019-05-29T17:11:53.927Z,101893.33
2019-05-29T17:14:25.590Z,101891.83
2019-05-29T17:16:56.118Z,101898.74
2019-05-29T17:19:25.646Z,101889.75
2019-05-29T17:21:55.053Z,101879.94
2019-05-29T17:24:25.072Z,101890.17
2019-05-29T17:26:54.458Z,101888.52
2019-05-29T17:29:24.943Z,101885.33
2019-05-29T17:31:54.354Z,101880.08
2019-05-29T17:34:25.226Z,101886.04
2019-05-29T17:36:54.894Z,101880.73
2019-05-29T17:39:26.106Z,101884.92
2019-05-29T17:41:55.529Z,101887.44
2019-05-29T17:44:25.674Z,101892.09
2019-05-29T17:46:55.077Z,101890.00
2019-05-29T17:49:33.031Z,101892.80
2019-05-29T17:51:55.532Z,101890.14
2019-05-29T17:54:26.094Z,101899.92
2019-05-29T17:56:55.710Z,101897.97
2019-05-29T17:59:26.316Z,101905.27
2019-05-29T18:01:56.809Z,101905.30
2019-05-29T18:04:26.763Z,101907.82
2019-05-29T18:06:56.729Z,101908.94
2019-05-29T18:09:29.067Z,101907.73
2019-05-29T18:11:57.412Z,101911.18
2019-05-29T18:14:27.509Z,101910.77
2019-05-29T18:16:57.041Z,101901.09
2019-05-29T18:19:27.943Z,101907.57
2019-05-29T18:22:02.965Z,101912.70
2019-05-29T18:24:32.123Z,101915.02
2019-05-29T18:27:01.415Z,101909.81
2019-05-29T18:29:33.686Z,101907.45
2019-05-29T18:32:03.061Z,101907.27
2019-05-29T18:34:35.073Z,101909.91
2019-05-29T18:37:06.606Z,101903.79
2019-05-29T18:39:35.973Z,101898.16
2019-05-29T18:42:05.256Z,101900.63
2019-05-29T18:44:34.576Z,101904.97
2019-05-29T18:47:03.881Z,101911.28
2019-05-29T18:49:33.241Z,101903.70
2019-05-29T18:52:02.579Z,101900.95
2019-05-29T18:54:33.108Z,101903.33
2019-05-29T18:57:14.373Z,101899.94
2019-05-29T18:59:35.330Z,101906.32
2019-05-29T19:02:04.652Z,101902.23
2019-05-29T19:04:34.052Z,101904.80
2019-05-29T19:07:03.457Z,101905.08
2019-05-29T19:09:32.790Z,101902.67
2019-05-29T19:12:04.601Z,101903.55
2019-05-29T19:14:33.996Z,101912.02
2019-05-29T19:17:03.311Z,101902.06
2019-05-29T19:19:32.704Z,101912.44
2019-05-29T19:22:01.989Z,101921.56
2019-05-29T19:24:32.695Z,101912.39
2019-05-29T19:27:02.169Z,101913.80
2019-05-29T19:29:31.510Z,101919.70
2019-05-29T19:32:00.843Z,101923.56
2019-05-29T19:34:31.482Z,101922.88
2019-05-29T19:37:01.151Z,101919.39
2019-05-29T19:39:30.549Z,101921.37
2019-05-29T19:42:00.157Z,101925.77
2019-05-29T19:44:39.865Z,101933.50
2019-05-29T19:47:09.198Z,101931.78
2019-05-29T19:49:38.607Z,101941.03
2019-05-29T19:52:08.117Z,101937.03
2019-05-29T19:54:37.545Z,101942.51
2019-05-29T19:57:06.917Z,101944.09
2019-05-29T19:59:36.391Z,101946.13
2019-05-29T20:02:05.742Z,101951.11
2019-05-29T20:04:35.043Z,101949.22
2019-05-29T20:07:04.362Z,101947.75
2019-05-29T20:09:33.736Z,101946.17
2019-05-29T20:12:03.069Z,101955.86
2019-05-29T20:14:32.440Z,101957.97
2019-05-29T20:17:02.838Z,101953.17
2019-05-29T20:19:36.329Z,101960.19
2019-05-29T20:22:03.962Z,101963.89
2019-05-29T20:24:33.196Z,101963.06
2019-05-29T20:27:02.523Z,101968.42
2019-05-29T20:29:32.388Z,101965.23
2019-05-29T20:32:01.719Z,101956.44
2019-05-29T20:34:31.039Z,101963.84
2019-05-29T20:37:00.316Z,101969.32
2019-05-29T20:39:30.199Z,101960.62
2019-05-29T20:41:59.630Z,101962.25
2019-05-29T20:44:30.470Z,101962.05
2019-05-29T20:46:59.849Z,101965.77
2019-05-29T20:49:29.144Z,101956.73
2019-05-29T20:51:58.524Z,101962.78
2019-05-29T20:54:27.873Z,101955.58
2019-05-29T20:56:57.138Z,101955.36
2019-05-29T20:59:28.737Z,101957.80
2019-05-29T21:01:58.101Z,101962.39
2019-05-29T21:04:27.465Z,101960.22
2019-05-29T21:07:00.364Z,101962.39
2019-05-29T21:09:30.906Z,101961.07
2019-05-29T21:12:00.272Z,101955.78
2019-05-29T21:14:29.802Z,101968.89
2019-05-29T21:16:59.176Z,101965.89
2019-05-29T21:19:28.504Z,101962.12
2019-05-29T21:21:59.285Z,101964.59
2019-05-29T21:24:28.647Z,101965.39
2019-05-29T21:26:57.987Z,101961.82
2019-05-29T21:29:27.299Z,101964.55
2019-05-29T21:31:56.649Z,101968.06
2019-05-29T21:34:29.942Z,101958.77
2019-05-29T21:36:59.269Z,101962.34
2019-05-29T21:39:28.543Z,101968.30
2019-05-29T21:41:57.935Z,101965.78
2019-05-29T21:44:27.236Z,101967.31
2019-05-29T21:46:56.561Z,101957.28
2019-05-29T21:49:25.831Z,101971.38
2019-05-29T21:51:55.177Z,101957.34
2019-05-29T21:54:24.658Z,101953.87
2019-05-29T21:56:54.101Z,101955.31
2019-05-29T21:59:23.426Z,101955.41
2019-05-29T22:01:52.869Z,101960.36
2019-05-29T22:04:22.291Z,101961.27
2019-05-29T22:06:51.694Z,101954.64
2019-05-29T22:09:21.282Z,101959.33
2019-05-29T22:11:50.601Z,101957.83
2019-05-29T22:14:19.984Z,101953.86
2019-05-29T22:16:49.297Z,101959.04
2019-05-29T22:19:18.979Z,101956.73
2019-05-29T22:21:48.259Z,101950.16
2019-05-29T22:24:17.606Z,101948.78
2019-05-29T22:26:46.989Z,101948.85
2019-05-29T22:29:18.443Z,101951.57
2019-05-29T22:31:47.338Z,101942.98
2019-05-29T22:34:16.636Z,101949.30
2019-05-29T22:36:45.927Z,101948.30
2019-05-29T22:39:15.248Z,101942.95
2019-05-29T22:41:44.593Z,101941.26
2019-05-29T22:44:13.909Z,101942.68
2019-05-29T22:46:43.216Z,101939.08
2019-05-29T22:49:12.545Z,101939.20
2019-05-29T22:51:41.916Z,101938.37
2019-05-29T22:54:11.453Z,101939.63
2019-05-29T22:56:40.809Z,101940.92
2019-05-29T22:59:10.070Z,101935.81
2019-05-29T23:01:39.345Z,101945.95
2019-05-29T23:04:08.646Z,101948.70
2019-05-29T23:06:38.026Z,101940.41
2019-05-29T23:09:08.103Z,101941.61
2019-05-29T23:11:37.437Z,101939.78
2019-05-29T23:14:06.731Z,101936.69
2019-05-29T23:16:36.110Z,101935.54
2019-05-29T23:19:05.453Z,101930.48
2019-05-29T23:21:34.697Z,101933.06
2019-05-29T23:24:04.265Z,101930.10
2019-05-29T23:26:33.499Z,101928.16
2019-05-29T23:29:03.883Z,101927.34
2019-05-29T23:31:33.195Z,101924.39
2019-05-29T23:34:03.300Z,101925.83
2019-05-29T23:36:32.674Z,101927.48
2019-05-29T23:39:01.959Z,101921.41
2019-05-29T23:41:31.227Z,101925.69
2019-05-29T23:44:01.625Z,101920.39
2019-05-29T23:46:31.019Z,101922.69
2019-05-29T23:49:01.573Z,101925.84
2019-05-29T23:51:31.021Z,101919.92
2019-05-29T23:54:00.397Z,101922.50
2019-05-29T23:56:31.778Z,101923.78
2019-05-29T23:59:01.962Z,101919.35
